sensor_id;sensor_type;location;lat;lon;timestamp;P1;durP1;ratioP1;P2;durP2;ratioP2
10511;SDS011;5304;48.604;2.096;2024-01-30T04:38:00;5.70;;;4.80;;
10511;SDS011;5304;48.604;2.096;2024-01-30T04:40:44;5.90;;;5.10;;
10511;SDS011;5304;48.604;2.096;2024-01-30T04:43:28;7.10;;;4.60;;
10511;SDS011;5304;48.604;2.096;2024-01-30T04:46:12;10.80;;;5.60;;
10511;SDS011;5304;48.604;2.096;2024-01-30T04:48:57;6.00;;;5.00;;
10511;SDS011;5304;48.604;2.096;2024-01-30T04:51:41;6.33;;;5.20;;
10511;SDS011;5304;48.604;2.096;2024-01-30T04:54:25;7.20;;;4.87;;
10511;SDS011;5304;48.604;2.096;2024-01-30T04:57:10;8.53;;;5.13;;
10511;SDS011;5304;48.604;2.096;2024-01-30T04:59:55;7.73;;;5.37;;
10511;SDS011;5304;48.604;2.096;2024-01-30T05:02:40;8.03;;;4.53;;
10511;SDS011;5304;48.604;2.096;2024-01-30T05:05:24;6.63;;;4.60;;
10511;SDS011;5304;48.604;2.096;2024-01-30T05:08:08;8.20;;;5.20;;
10511;SDS011;5304;48.604;2.096;2024-01-30T05:10:53;6.90;;;5.20;;
10511;SDS011;5304;48.604;2.096;2024-01-30T05:13:37;9.40;;;5.30;;
10511;SDS011;5304;48.604;2.096;2024-01-30T05:16:21;7.13;;;4.90;;
10511;SDS011;5304;48.604;2.096;2024-01-30T05:19:06;8.03;;;5.10;;
10511;SDS011;5304;48.604;2.096;2024-01-30T05:21:50;7.37;;;4.97;;
10511;SDS011;5304;48.604;2.096;2024-01-30T05:24:36;7.10;;;5.53;;
10511;SDS011;5304;48.604;2.096;2024-01-30T05:27:21;7.50;;;5.03;;
10511;SDS011;5304;48.604;2.096;2024-01-30T05:30:06;9.30;;;5.27;;
10511;SDS011;5304;48.604;2.096;2024-01-30T05:32:51;6.83;;;4.83;;
10511;SDS011;5304;48.604;2.096;2024-01-30T05:35:36;7.77;;;5.43;;
10511;SDS011;5304;48.604;2.096;2024-01-30T05:38:20;10.83;;;5.37;;
10511;SDS011;5304;48.604;2.096;2024-01-30T05:41:05;8.23;;;5.00;;
10511;SDS011;5304;48.604;2.096;2024-01-30T05:43:49;6.97;;;5.47;;
10511;SDS011;5304;48.604;2.096;2024-01-30T05:46:33;8.70;;;5.60;;
10511;SDS011;5304;48.604;2.096;2024-01-30T05:49:19;8.20;;;5.53;;
10511;SDS011;5304;48.604;2.096;2024-01-30T05:52:03;8.63;;;5.30;;
10511;SDS011;5304;48.604;2.096;2024-01-30T05:54:48;8.00;;;5.13;;
10511;SDS011;5304;48.604;2.096;2024-01-30T05:57:32;10.63;;;5.70;;
10511;SDS011;5304;48.604;2.096;2024-01-30T06:00:17;6.17;;;5.17;;
10511;SDS011;5304;48.604;2.096;2024-01-30T06:03:01;6.10;;;4.60;;
10511;SDS011;5304;48.604;2.096;2024-01-30T06:05:46;8.47;;;5.30;;
10511;SDS011;5304;48.604;2.096;2024-01-30T06:08:30;8.90;;;5.50;;
10511;SDS011;5304;48.604;2.096;2024-01-30T06:11:14;12.10;;;6.20;;
10511;SDS011;5304;48.604;2.096;2024-01-30T06:13:59;7.40;;;5.67;;
10511;SDS011;5304;48.604;2.096;2024-01-30T06:16:43;7.43;;;5.33;;
10511;SDS011;5304;48.604;2.096;2024-01-30T06:19:27;9.80;;;7.00;;
10511;SDS011;5304;48.604;2.096;2024-01-30T06:22:11;11.20;;;7.20;;
10511;SDS011;5304;48.604;2.096;2024-01-30T06:24:56;11.60;;;6.13;;
10511;SDS011;5304;48.604;2.096;2024-01-30T06:27:40;8.87;;;6.63;;
10511;SDS011;5304;48.604;2.096;2024-01-30T06:30:24;9.33;;;6.50;;
10511;SDS011;5304;48.604;2.096;2024-01-30T06:33:08;9.27;;;6.03;;
10511;SDS011;5304;48.604;2.096;2024-01-30T06:35:56;7.00;;;5.80;;
10511;SDS011;5304;48.604;2.096;2024-01-30T06:38:40;9.60;;;6.43;;
10511;SDS011;5304;48.604;2.096;2024-01-30T06:41:26;10.43;;;7.03;;
10511;SDS011;5304;48.604;2.096;2024-01-30T06:44:10;7.70;;;6.33;;
10511;SDS011;5304;48.604;2.096;2024-01-30T06:46:55;13.43;;;6.93;;
10511;SDS011;5304;48.604;2.096;2024-01-30T06:49:39;14.90;;;9.13;;
10511;SDS011;5304;48.604;2.096;2024-01-30T06:52:25;14.67;;;8.00;;
10511;SDS011;5304;48.604;2.096;2024-01-30T06:55:09;11.93;;;6.90;;
10511;SDS011;5304;48.604;2.096;2024-01-30T06:57:53;14.53;;;9.07;;
10511;SDS011;5304;48.604;2.096;2024-01-30T07:00:38;10.73;;;6.43;;
10511;SDS011;5304;48.604;2.096;2024-01-30T07:03:22;9.27;;;6.70;;
10511;SDS011;5304;48.604;2.096;2024-01-30T07:06:06;12.90;;;7.27;;
10511;SDS011;5304;48.604;2.096;2024-01-30T07:08:50;8.40;;;6.30;;
10511;SDS011;5304;48.604;2.096;2024-01-30T07:11:35;7.10;;;5.37;;
10511;SDS011;5304;48.604;2.096;2024-01-30T07:14:20;10.67;;;6.23;;
10511;SDS011;5304;48.604;2.096;2024-01-30T07:17:04;10.27;;;6.80;;
10511;SDS011;5304;48.604;2.096;2024-01-30T07:19:48;12.90;;;6.53;;
10511;SDS011;5304;48.604;2.096;2024-01-30T07:22:32;10.03;;;6.17;;
10511;SDS011;5304;48.604;2.096;2024-01-30T07:25:17;10.40;;;5.97;;
10511;SDS011;5304;48.604;2.096;2024-01-30T07:28:01;10.03;;;6.33;;
10511;SDS011;5304;48.604;2.096;2024-01-30T07:30:48;10.77;;;6.57;;
10511;SDS011;5304;48.604;2.096;2024-01-30T07:33:33;12.10;;;6.13;;
10511;SDS011;5304;48.604;2.096;2024-01-30T07:36:17;10.30;;;7.03;;
10511;SDS011;5304;48.604;2.096;2024-01-30T07:39:01;10.97;;;6.60;;
10511;SDS011;5304;48.604;2.096;2024-01-30T07:41:45;10.47;;;6.73;;
10511;SDS011;5304;48.604;2.096;2024-01-30T07:44:29;11.60;;;6.10;;
10511;SDS011;5304;48.604;2.096;2024-01-30T07:47:13;9.23;;;5.53;;
10511;SDS011;5304;48.604;2.096;2024-01-30T07:49:58;10.43;;;6.23;;
10511;SDS011;5304;48.604;2.096;2024-01-30T07:52:43;8.97;;;5.23;;
10511;SDS011;5304;48.604;2.096;2024-01-30T07:55:27;10.23;;;6.00;;
10511;SDS011;5304;48.604;2.096;2024-01-30T07:58:12;9.57;;;6.17;;
10511;SDS011;5304;48.604;2.096;2024-01-30T08:00:56;11.23;;;6.43;;
10511;SDS011;5304;48.604;2.096;2024-01-30T08:03:42;9.73;;;5.63;;
10511;SDS011;5304;48.604;2.096;2024-01-30T08:06:26;6.63;;;5.47;;
10511;SDS011;5304;48.604;2.096;2024-01-30T08:09:10;8.60;;;5.77;;
10511;SDS011;5304;48.604;2.096;2024-01-30T08:11:54;13.30;;;6.77;;
10511;SDS011;5304;48.604;2.096;2024-01-30T08:14:39;9.90;;;6.50;;
10511;SDS011;5304;48.604;2.096;2024-01-30T08:17:24;13.60;;;6.83;;
10511;SDS011;5304;48.604;2.096;2024-01-30T08:20:09;13.60;;;6.77;;
10511;SDS011;5304;48.604;2.096;2024-01-30T08:22:55;15.63;;;7.00;;
10511;SDS011;5304;48.604;2.096;2024-01-30T08:25:39;13.83;;;7.10;;
10511;SDS011;5304;48.604;2.096;2024-01-30T08:28:23;14.70;;;7.27;;
10511;SDS011;5304;48.604;2.096;2024-01-30T08:31:10;16.17;;;7.30;;
10511;SDS011;5304;48.604;2.096;2024-01-30T08:33:55;15.00;;;8.07;;
10511;SDS011;5304;48.604;2.096;2024-01-30T08:36:39;15.47;;;8.00;;
10511;SDS011;5304;48.604;2.096;2024-01-30T08:39:23;14.63;;;8.30;;
10511;SDS011;5304;48.604;2.096;2024-01-30T08:42:08;12.23;;;8.17;;
10511;SDS011;5304;48.604;2.096;2024-01-30T08:44:52;13.07;;;8.50;;
10511;SDS011;5304;48.604;2.096;2024-01-30T08:47:36;15.07;;;8.13;;
10511;SDS011;5304;48.604;2.096;2024-01-30T08:50:20;11.73;;;7.77;;
10511;SDS011;5304;48.604;2.096;2024-01-30T08:53:04;15.27;;;8.10;;
10511;SDS011;5304;48.604;2.096;2024-01-30T08:55:48;18.70;;;8.30;;
10511;SDS011;5304;48.604;2.096;2024-01-30T08:58:33;13.70;;;7.93;;
10511;SDS011;5304;48.604;2.096;2024-01-30T09:01:17;14.60;;;7.47;;
10511;SDS011;5304;48.604;2.096;2024-01-30T09:04:01;12.30;;;8.20;;
10511;SDS011;5304;48.604;2.096;2024-01-30T09:06:46;15.60;;;7.87;;
10511;SDS011;5304;48.604;2.096;2024-01-30T09:09:32;14.10;;;7.50;;
10511;SDS011;5304;48.604;2.096;2024-01-30T09:12:16;18.43;;;8.00;;
10511;SDS011;5304;48.604;2.096;2024-01-30T09:15:00;13.27;;;8.47;;
10511;SDS011;5304;48.604;2.096;2024-01-30T09:17:45;18.13;;;8.63;;
10511;SDS011;5304;48.604;2.096;2024-01-30T09:20:29;16.80;;;7.90;;
10511;SDS011;5304;48.604;2.096;2024-01-30T09:23:13;17.27;;;8.63;;
10511;SDS011;5304;48.604;2.096;2024-01-30T09:25:57;14.13;;;8.57;;
10511;SDS011;5304;48.604;2.096;2024-01-30T09:28:41;18.30;;;8.80;;
10511;SDS011;5304;48.604;2.096;2024-01-30T09:31:26;18.40;;;7.70;;
10511;SDS011;5304;48.604;2.096;2024-01-30T09:34:11;16.57;;;7.90;;
10511;SDS011;5304;48.604;2.096;2024-01-30T09:36:55;21.23;;;8.90;;
10511;SDS011;5304;48.604;2.096;2024-01-30T09:39:39;14.90;;;8.10;;
10511;SDS011;5304;48.604;2.096;2024-01-30T09:42:26;16.63;;;8.30;;
10511;SDS011;5304;48.604;2.096;2024-01-30T09:45:12;14.50;;;8.13;;
10511;SDS011;5304;48.604;2.096;2024-01-30T09:47:58;16.40;;;8.60;;
10511;SDS011;5304;48.604;2.096;2024-01-30T09:50:43;18.77;;;9.10;;
10511;SDS011;5304;48.604;2.096;2024-01-30T09:53:27;16.57;;;9.23;;
10511;SDS011;5304;48.604;2.096;2024-01-30T09:56:14;15.40;;;8.57;;
10511;SDS011;5304;48.604;2.096;2024-01-30T09:59:00;15.67;;;8.67;;
10511;SDS011;5304;48.604;2.096;2024-01-30T10:01:44;17.30;;;9.20;;
10511;SDS011;5304;48.604;2.096;2024-01-30T10:04:29;20.43;;;9.43;;
10511;SDS011;5304;48.604;2.096;2024-01-30T10:07:14;16.57;;;8.87;;
10511;SDS011;5304;48.604;2.096;2024-01-30T10:09:58;13.90;;;8.23;;
10511;SDS011;5304;48.604;2.096;2024-01-30T10:12:42;13.77;;;7.70;;
10511;SDS011;5304;48.604;2.096;2024-01-30T10:15:28;15.23;;;8.10;;
10511;SDS011;5304;48.604;2.096;2024-01-30T10:18:12;15.80;;;8.30;;
10511;SDS011;5304;48.604;2.096;2024-01-30T10:20:56;14.40;;;8.50;;
10511;SDS011;5304;48.604;2.096;2024-01-30T10:23:41;14.07;;;7.83;;
10511;SDS011;5304;48.604;2.096;2024-01-30T10:26:27;17.83;;;8.87;;
10511;SDS011;5304;48.604;2.096;2024-01-30T10:29:13;14.30;;;8.80;;
10511;SDS011;5304;48.604;2.096;2024-01-30T10:32:00;16.47;;;8.97;;
10511;SDS011;5304;48.604;2.096;2024-01-30T10:34:45;16.27;;;7.93;;
10511;SDS011;5304;48.604;2.096;2024-01-30T10:37:30;15.73;;;7.73;;
10511;SDS011;5304;48.604;2.096;2024-01-30T10:40:16;12.90;;;9.07;;
10511;SDS011;5304;48.604;2.096;2024-01-30T10:43:04;13.10;;;7.70;;
10511;SDS011;5304;48.604;2.096;2024-01-30T10:45:52;15.93;;;7.97;;
10511;SDS011;5304;48.604;2.096;2024-01-30T10:48:42;15.60;;;8.07;;
10511;SDS011;5304;48.604;2.096;2024-01-30T10:51:31;19.47;;;8.80;;
10511;SDS011;5304;48.604;2.096;2024-01-30T10:54:16;14.70;;;8.43;;
10511;SDS011;5304;48.604;2.096;2024-01-30T10:57:01;17.63;;;7.73;;
10511;SDS011;5304;48.604;2.096;2024-01-30T10:59:48;20.40;;;8.23;;
10511;SDS011;5304;48.604;2.096;2024-01-30T11:02:33;10.47;;;7.87;;
10511;SDS011;5304;48.604;2.096;2024-01-30T11:05:23;16.03;;;8.63;;
10511;SDS011;5304;48.604;2.096;2024-01-30T11:08:12;12.93;;;7.73;;
10511;SDS011;5304;48.604;2.096;2024-01-30T11:10:57;17.40;;;8.17;;
10511;SDS011;5304;48.604;2.096;2024-01-30T11:13:42;11.13;;;8.43;;
10511;SDS011;5304;48.604;2.096;2024-01-30T11:16:30;18.83;;;7.87;;
10511;SDS011;5304;48.604;2.096;2024-01-30T11:19:22;14.63;;;9.70;;
10511;SDS011;5304;48.604;2.096;2024-01-30T11:22:08;12.23;;;7.40;;
10511;SDS011;5304;48.604;2.096;2024-01-30T11:24:52;19.73;;;10.37;;
10511;SDS011;5304;48.604;2.096;2024-01-30T11:27:37;35.20;;;16.10;;
10511;SDS011;5304;48.604;2.096;2024-01-30T11:30:31;27.47;;;14.03;;
10511;SDS011;5304;48.604;2.096;2024-01-30T11:33:16;25.97;;;11.73;;
10511;SDS011;5304;48.604;2.096;2024-01-30T11:36:14;15.87;;;8.43;;
10511;SDS011;5304;48.604;2.096;2024-01-30T11:38:59;20.63;;;10.33;;
10511;SDS011;5304;48.604;2.096;2024-01-30T11:41:45;15.30;;;7.90;;
10511;SDS011;5304;48.604;2.096;2024-01-30T11:44:30;13.10;;;7.07;;
10511;SDS011;5304;48.604;2.096;2024-01-30T11:47:14;16.73;;;7.33;;
10511;SDS011;5304;48.604;2.096;2024-01-30T11:49:59;12.23;;;7.50;;
10511;SDS011;5304;48.604;2.096;2024-01-30T11:52:43;12.30;;;7.87;;
10511;SDS011;5304;48.604;2.096;2024-01-30T11:55:31;17.67;;;7.33;;
10511;SDS011;5304;48.604;2.096;2024-01-30T11:58:15;12.10;;;7.47;;
10511;SDS011;5304;48.604;2.096;2024-01-30T12:01:00;10.43;;;6.37;;
10511;SDS011;5304;48.604;2.096;2024-01-30T12:03:50;13.70;;;7.30;;
10511;SDS011;5304;48.604;2.096;2024-01-30T12:06:35;12.03;;;7.57;;
10511;SDS011;5304;48.604;2.096;2024-01-30T12:09:20;10.67;;;5.77;;
10511;SDS011;5304;48.604;2.096;2024-01-30T12:12:06;12.40;;;6.03;;
10511;SDS011;5304;48.604;2.096;2024-01-30T12:14:56;8.97;;;5.63;;
10511;SDS011;5304;48.604;2.096;2024-01-30T12:17:40;7.40;;;4.60;;
10511;SDS011;5304;48.604;2.096;2024-01-30T12:20:25;8.47;;;5.80;;
10511;SDS011;5304;48.604;2.096;2024-01-30T12:23:09;10.43;;;5.70;;
10511;SDS011;5304;48.604;2.096;2024-01-30T12:25:56;7.77;;;5.20;;
10511;SDS011;5304;48.604;2.096;2024-01-30T12:28:50;12.27;;;5.73;;
10511;SDS011;5304;48.604;2.096;2024-01-30T12:31:34;7.37;;;4.60;;
10511;SDS011;5304;48.604;2.096;2024-01-30T12:34:18;7.20;;;4.73;;
10511;SDS011;5304;48.604;2.096;2024-01-30T12:37:04;9.13;;;4.67;;
10511;SDS011;5304;48.604;2.096;2024-01-30T12:39:53;11.67;;;7.10;;
10511;SDS011;5304;48.604;2.096;2024-01-30T12:42:38;11.57;;;7.83;;
10511;SDS011;5304;48.604;2.096;2024-01-30T12:45:22;7.23;;;4.67;;
10511;SDS011;5304;48.604;2.096;2024-01-30T12:48:06;11.07;;;5.13;;
10511;SDS011;5304;48.604;2.096;2024-01-30T12:50:51;7.37;;;4.57;;
10511;SDS011;5304;48.604;2.096;2024-01-30T12:53:35;7.00;;;4.13;;
10511;SDS011;5304;48.604;2.096;2024-01-30T12:56:19;8.10;;;4.77;;
10511;SDS011;5304;48.604;2.096;2024-01-30T12:59:04;7.97;;;4.00;;
10511;SDS011;5304;48.604;2.096;2024-01-30T13:01:48;9.23;;;4.37;;
10511;SDS011;5304;48.604;2.096;2024-01-30T13:04:32;4.53;;;3.23;;
10511;SDS011;5304;48.604;2.096;2024-01-30T13:07:17;6.00;;;3.73;;
10511;SDS011;5304;48.604;2.096;2024-01-30T13:10:02;4.13;;;3.63;;
10511;SDS011;5304;48.604;2.096;2024-01-30T13:12:47;7.60;;;3.50;;
10511;SDS011;5304;48.604;2.096;2024-01-30T13:15:33;5.80;;;3.30;;
10511;SDS011;5304;48.604;2.096;2024-01-30T13:18:17;7.77;;;3.30;;
10511;SDS011;5304;48.604;2.096;2024-01-30T13:21:01;9.00;;;3.30;;
10511;SDS011;5304;48.604;2.096;2024-01-30T13:23:46;9.10;;;3.70;;
10511;SDS011;5304;48.604;2.096;2024-01-30T13:26:31;4.27;;;2.60;;
10511;SDS011;5304;48.604;2.096;2024-01-30T13:29:16;6.37;;;2.80;;
10511;SDS011;5304;48.604;2.096;2024-01-30T13:32:00;5.80;;;3.37;;
10511;SDS011;5304;48.604;2.096;2024-01-30T13:34:44;3.50;;;2.37;;
10511;SDS011;5304;48.604;2.096;2024-01-30T13:37:29;4.73;;;2.80;;
10511;SDS011;5304;48.604;2.096;2024-01-30T13:40:13;3.63;;;3.00;;
10511;SDS011;5304;48.604;2.096;2024-01-30T13:42:58;5.33;;;2.77;;
10511;SDS011;5304;48.604;2.096;2024-01-30T13:45:43;6.70;;;2.83;;
10511;SDS011;5304;48.604;2.096;2024-01-30T13:48:27;4.03;;;2.63;;
10511;SDS011;5304;48.604;2.096;2024-01-30T13:51:12;4.73;;;2.67;;
10511;SDS011;5304;48.604;2.096;2024-01-30T13:53:56;5.50;;;2.90;;
10511;SDS011;5304;48.604;2.096;2024-01-30T13:56:41;6.03;;;2.93;;
10511;SDS011;5304;48.604;2.096;2024-01-30T13:59:25;4.53;;;2.53;;
10511;SDS011;5304;48.604;2.096;2024-01-30T14:02:10;6.20;;;2.60;;
10511;SDS011;5304;48.604;2.096;2024-01-30T14:04:54;3.30;;;2.47;;
10511;SDS011;5304;48.604;2.096;2024-01-30T14:07:38;4.23;;;2.43;;
10511;SDS011;5304;48.604;2.096;2024-01-30T14:10:24;2.80;;;1.80;;
10511;SDS011;5304;48.604;2.096;2024-01-30T14:13:09;5.97;;;3.10;;
10511;SDS011;5304;48.604;2.096;2024-01-30T14:15:55;4.33;;;2.33;;
10511;SDS011;5304;48.604;2.096;2024-01-30T14:18:40;5.00;;;2.83;;
10511;SDS011;5304;48.604;2.096;2024-01-30T14:21:25;5.10;;;2.40;;
10511;SDS011;5304;48.604;2.096;2024-01-30T14:24:09;3.37;;;2.23;;
10511;SDS011;5304;48.604;2.096;2024-01-30T14:26:53;3.40;;;2.40;;
10511;SDS011;5304;48.604;2.096;2024-01-30T14:29:37;3.97;;;1.93;;
10511;SDS011;5304;48.604;2.096;2024-01-30T14:32:22;4.57;;;2.03;;
10511;SDS011;5304;48.604;2.096;2024-01-30T14:35:07;4.17;;;2.07;;
10511;SDS011;5304;48.604;2.096;2024-01-30T14:37:52;4.10;;;1.87;;
10511;SDS011;5304;48.604;2.096;2024-01-30T14:40:37;3.37;;;1.50;;
10511;SDS011;5304;48.604;2.096;2024-01-30T14:43:22;1.83;;;1.40;;
10511;SDS011;5304;48.604;2.096;2024-01-30T14:46:06;3.13;;;1.87;;
10511;SDS011;5304;48.604;2.096;2024-01-30T14:48:50;3.00;;;1.90;;
10511;SDS011;5304;48.604;2.096;2024-01-30T14:51:35;1.73;;;1.63;;
10511;SDS011;5304;48.604;2.096;2024-01-30T14:54:19;3.43;;;1.93;;
10511;SDS011;5304;48.604;2.096;2024-01-30T14:57:03;3.93;;;1.90;;
10511;SDS011;5304;48.604;2.096;2024-01-30T14:59:48;2.97;;;2.10;;
10511;SDS011;5304;48.604;2.096;2024-01-30T15:02:32;2.07;;;1.87;;
10511;SDS011;5304;48.604;2.096;2024-01-30T15:05:17;3.73;;;2.00;;
10511;SDS011;5304;48.604;2.096;2024-01-30T15:08:02;5.67;;;2.03;;
10511;SDS011;5304;48.604;2.096;2024-01-30T15:10:47;3.27;;;1.60;;
10511;SDS011;5304;48.604;2.096;2024-01-30T15:13:34;2.57;;;1.80;;
10511;SDS011;5304;48.604;2.096;2024-01-30T15:16:19;2.00;;;1.57;;
10511;SDS011;5304;48.604;2.096;2024-01-30T15:19:03;3.60;;;1.80;;
10511;SDS011;5304;48.604;2.096;2024-01-30T15:21:48;2.47;;;1.73;;
10511;SDS011;5304;48.604;2.096;2024-01-30T15:24:32;4.00;;;2.00;;
10511;SDS011;5304;48.604;2.096;2024-01-30T15:27:16;2.90;;;1.50;;
10511;SDS011;5304;48.604;2.096;2024-01-30T15:30:03;2.27;;;1.77;;
10511;SDS011;5304;48.604;2.096;2024-01-30T15:32:48;1.50;;;1.40;;
10511;SDS011;5304;48.604;2.096;2024-01-30T15:35:33;1.67;;;1.33;;
10511;SDS011;5304;48.604;2.096;2024-01-30T15:38:17;1.60;;;1.40;;
10511;SDS011;5304;48.604;2.096;2024-01-30T15:41:04;3.30;;;2.00;;
10511;SDS011;5304;48.604;2.096;2024-01-30T15:43:48;2.27;;;1.57;;
10511;SDS011;5304;48.604;2.096;2024-01-30T15:46:33;3.33;;;1.53;;
10511;SDS011;5304;48.604;2.096;2024-01-30T15:49:17;2.13;;;1.50;;
10511;SDS011;5304;48.604;2.096;2024-01-30T15:52:01;2.00;;;1.33;;
10511;SDS011;5304;48.604;2.096;2024-01-30T15:54:46;3.03;;;1.60;;
10511;SDS011;5304;48.604;2.096;2024-01-30T15:57:33;3.87;;;1.60;;
10511;SDS011;5304;48.604;2.096;2024-01-30T16:00:18;2.97;;;1.43;;
10511;SDS011;5304;48.604;2.096;2024-01-30T16:03:03;2.20;;;1.67;;
10511;SDS011;5304;48.604;2.096;2024-01-30T16:05:47;8.70;;;5.60;;
10511;SDS011;5304;48.604;2.096;2024-01-30T16:08:32;18.67;;;11.50;;
10511;SDS011;5304;48.604;2.096;2024-01-30T16:11:16;14.20;;;8.23;;
10511;SDS011;5304;48.604;2.096;2024-01-30T16:14:01;11.90;;;4.60;;
10511;SDS011;5304;48.604;2.096;2024-01-30T16:16:45;9.27;;;5.57;;
10511;SDS011;5304;48.604;2.096;2024-01-30T16:19:29;7.13;;;3.97;;
10511;SDS011;5304;48.604;2.096;2024-01-30T16:22:16;7.10;;;4.33;;
10511;SDS011;5304;48.604;2.096;2024-01-30T16:25:03;5.23;;;4.23;;
10511;SDS011;5304;48.604;2.096;2024-01-30T16:27:48;7.83;;;4.47;;
10511;SDS011;5304;48.604;2.096;2024-01-30T16:30:33;6.77;;;4.83;;
10511;SDS011;5304;48.604;2.096;2024-01-30T16:33:17;7.07;;;4.10;;
10511;SDS011;5304;48.604;2.096;2024-01-30T16:36:01;8.03;;;5.23;;
10511;SDS011;5304;48.604;2.096;2024-01-30T16:38:47;9.50;;;5.53;;
10511;SDS011;5304;48.604;2.096;2024-01-30T16:41:32;7.80;;;5.03;;
10511;SDS011;5304;48.604;2.096;2024-01-30T16:44:17;7.00;;;4.63;;
10511;SDS011;5304;48.604;2.096;2024-01-30T16:47:01;3.97;;;2.60;;
10511;SDS011;5304;48.604;2.096;2024-01-30T16:49:45;1.87;;;1.77;;
10511;SDS011;5304;48.604;2.096;2024-01-30T16:52:30;3.07;;;2.00;;
10511;SDS011;5304;48.604;2.096;2024-01-30T16:55:14;3.33;;;2.13;;
10511;SDS011;5304;48.604;2.096;2024-01-30T16:57:58;2.40;;;2.20;;
10511;SDS011;5304;48.604;2.096;2024-01-30T17:00:42;2.33;;;2.13;;
10511;SDS011;5304;48.604;2.096;2024-01-30T17:03:26;1.97;;;1.53;;
10511;SDS011;5304;48.604;2.096;2024-01-30T17:06:11;3.00;;;1.60;;
10511;SDS011;5304;48.604;2.096;2024-01-30T17:08:56;4.00;;;2.00;;
10511;SDS011;5304;48.604;2.096;2024-01-30T17:11:40;3.43;;;2.23;;
10511;SDS011;5304;48.604;2.096;2024-01-30T17:14:25;2.10;;;1.90;;
10511;SDS011;5304;48.604;2.096;2024-01-30T17:17:09;5.63;;;1.90;;
10511;SDS011;5304;48.604;2.096;2024-01-30T17:19:53;2.97;;;2.30;;
10511;SDS011;5304;48.604;2.096;2024-01-30T17:22:38;2.67;;;2.10;;
10511;SDS011;5304;48.604;2.096;2024-01-30T17:25:22;2.80;;;2.50;;
10511;SDS011;5304;48.604;2.096;2024-01-30T17:28:07;2.70;;;2.43;;
10511;SDS011;5304;48.604;2.096;2024-01-30T17:30:53;3.03;;;2.80;;
10511;SDS011;5304;48.604;2.096;2024-01-30T17:33:38;4.23;;;3.10;;
10511;SDS011;5304;48.604;2.096;2024-01-30T17:36:22;3.67;;;2.50;;
10511;SDS011;5304;48.604;2.096;2024-01-30T17:39:08;3.00;;;2.07;;
10511;SDS011;5304;48.604;2.096;2024-01-30T17:41:52;3.33;;;2.13;;
10511;SDS011;5304;48.604;2.096;2024-01-30T17:44:36;5.07;;;3.00;;
10511;SDS011;5304;48.604;2.096;2024-01-30T17:47:23;5.00;;;3.50;;
10511;SDS011;5304;48.604;2.096;2024-01-30T17:50:08;6.80;;;5.03;;
10511;SDS011;5304;48.604;2.096;2024-01-30T17:52:52;5.50;;;3.80;;
10511;SDS011;5304;48.604;2.096;2024-01-30T17:55:37;7.37;;;3.03;;
10511;SDS011;5304;48.604;2.096;2024-01-30T17:58:21;2.43;;;1.97;;
10511;SDS011;5304;48.604;2.096;2024-01-30T18:01:06;3.17;;;2.40;;
10511;SDS011;5304;48.604;2.096;2024-01-30T18:03:51;4.00;;;2.50;;
10511;SDS011;5304;48.604;2.096;2024-01-30T18:06:39;4.10;;;2.40;;
10511;SDS011;5304;48.604;2.096;2024-01-30T18:09:23;3.30;;;2.30;;
10511;SDS011;5304;48.604;2.096;2024-01-30T18:12:09;8.83;;;4.90;;
10511;SDS011;5304;48.604;2.096;2024-01-30T18:14:54;9.13;;;5.00;;
10511;SDS011;5304;48.604;2.096;2024-01-30T18:17:38;5.80;;;3.73;;
10511;SDS011;5304;48.604;2.096;2024-01-30T18:20:23;6.13;;;2.60;;
10511;SDS011;5304;48.604;2.096;2024-01-30T18:23:07;4.13;;;2.20;;
10511;SDS011;5304;48.604;2.096;2024-01-30T18:25:51;2.87;;;2.07;;
10511;SDS011;5304;48.604;2.096;2024-01-30T18:28:43;2.47;;;2.20;;
10511;SDS011;5304;48.604;2.096;2024-01-30T18:31:28;4.00;;;2.40;;
10511;SDS011;5304;48.604;2.096;2024-01-30T18:34:12;5.90;;;3.07;;
10511;SDS011;5304;48.604;2.096;2024-01-30T18:36:57;6.27;;;3.27;;
10511;SDS011;5304;48.604;2.096;2024-01-30T18:39:44;7.70;;;3.27;;
10511;SDS011;5304;48.604;2.096;2024-01-30T18:42:29;11.73;;;5.00;;
10511;SDS011;5304;48.604;2.096;2024-01-30T18:45:13;8.17;;;3.53;;
10511;SDS011;5304;48.604;2.096;2024-01-30T18:47:58;10.23;;;4.73;;
10511;SDS011;5304;48.604;2.096;2024-01-30T18:50:42;14.70;;;5.53;;
10511;SDS011;5304;48.604;2.096;2024-01-30T18:53:26;9.47;;;4.97;;
10511;SDS011;5304;48.604;2.096;2024-01-30T18:56:11;7.27;;;4.90;;
10511;SDS011;5304;48.604;2.096;2024-01-30T18:58:56;7.73;;;4.93;;
10511;SDS011;5304;48.604;2.096;2024-01-30T19:01:40;9.20;;;6.20;;
10511;SDS011;5304;48.604;2.096;2024-01-30T19:04:24;9.57;;;6.63;;
10511;SDS011;5304;48.604;2.096;2024-01-30T19:07:09;6.97;;;5.07;;
10511;SDS011;5304;48.604;2.096;2024-01-30T19:09:53;7.90;;;4.07;;
10511;SDS011;5304;48.604;2.096;2024-01-30T19:12:37;5.63;;;4.03;;
10511;SDS011;5304;48.604;2.096;2024-01-30T19:15:23;3.83;;;3.33;;
10511;SDS011;5304;48.604;2.096;2024-01-30T19:18:07;5.23;;;3.40;;
10511;SDS011;5304;48.604;2.096;2024-01-30T19:20:52;5.77;;;3.53;;
10511;SDS011;5304;48.604;2.096;2024-01-30T19:23:36;3.90;;;3.03;;
10511;SDS011;5304;48.604;2.096;2024-01-30T19:26:20;5.23;;;3.53;;
10511;SDS011;5304;48.604;2.096;2024-01-30T19:29:04;7.87;;;4.00;;
10511;SDS011;5304;48.604;2.096;2024-01-30T19:31:49;4.23;;;3.00;;
10511;SDS011;5304;48.604;2.096;2024-01-30T19:34:34;5.10;;;3.23;;
10511;SDS011;5304;48.604;2.096;2024-01-30T19:37:19;8.37;;;4.67;;
10511;SDS011;5304;48.604;2.096;2024-01-30T19:40:09;7.40;;;4.33;;
10511;SDS011;5304;48.604;2.096;2024-01-30T19:42:54;10.17;;;5.83;;
10511;SDS011;5304;48.604;2.096;2024-01-30T19:45:38;18.13;;;10.73;;
10511;SDS011;5304;48.604;2.096;2024-01-30T19:48:22;14.77;;;9.77;;
10511;SDS011;5304;48.604;2.096;2024-01-30T19:51:06;16.53;;;8.63;;
10511;SDS011;5304;48.604;2.096;2024-01-30T19:53:50;11.33;;;7.97;;
10511;SDS011;5304;48.604;2.096;2024-01-30T19:56:35;13.63;;;7.83;;
10511;SDS011;5304;48.604;2.096;2024-01-30T19:59:19;13.00;;;9.57;;
10511;SDS011;5304;48.604;2.096;2024-01-30T20:02:03;77.03;;;32.47;;
10511;SDS011;5304;48.604;2.096;2024-01-30T20:04:48;35.80;;;17.40;;
10511;SDS011;5304;48.604;2.096;2024-01-30T20:07:33;23.77;;;12.70;;
10511;SDS011;5304;48.604;2.096;2024-01-30T20:10:19;16.23;;;9.77;;
10511;SDS011;5304;48.604;2.096;2024-01-30T20:13:03;23.40;;;12.97;;
10511;SDS011;5304;48.604;2.096;2024-01-30T20:15:48;18.73;;;9.87;;
10511;SDS011;5304;48.604;2.096;2024-01-30T20:18:34;11.93;;;6.67;;
10511;SDS011;5304;48.604;2.096;2024-01-30T20:21:19;12.47;;;7.23;;
10511;SDS011;5304;48.604;2.096;2024-01-30T20:24:03;41.70;;;21.57;;
10511;SDS011;5304;48.604;2.096;2024-01-30T20:26:49;37.63;;;18.53;;
10511;SDS011;5304;48.604;2.096;2024-01-30T20:29:35;35.03;;;17.67;;
10511;SDS011;5304;48.604;2.096;2024-01-30T20:32:20;14.97;;;9.23;;
10511;SDS011;5304;48.604;2.096;2024-01-30T20:35:05;15.93;;;9.10;;
10511;SDS011;5304;48.604;2.096;2024-01-30T20:37:51;9.57;;;5.63;;
10511;SDS011;5304;48.604;2.096;2024-01-30T20:40:35;7.07;;;4.97;;
10511;SDS011;5304;48.604;2.096;2024-01-30T20:43:20;7.20;;;4.47;;
10511;SDS011;5304;48.604;2.096;2024-01-30T20:46:05;9.70;;;5.37;;
10511;SDS011;5304;48.604;2.096;2024-01-30T20:48:50;7.10;;;5.20;;
10511;SDS011;5304;48.604;2.096;2024-01-30T20:51:35;11.17;;;8.10;;
10511;SDS011;5304;48.604;2.096;2024-01-30T20:54:19;8.93;;;5.17;;
10511;SDS011;5304;48.604;2.096;2024-01-30T20:57:03;9.43;;;5.87;;
10511;SDS011;5304;48.604;2.096;2024-01-30T20:59:48;7.70;;;6.47;;
10511;SDS011;5304;48.604;2.096;2024-01-30T21:02:32;11.67;;;6.30;;
10511;SDS011;5304;48.604;2.096;2024-01-30T21:05:18;9.33;;;6.40;;
10511;SDS011;5304;48.604;2.096;2024-01-30T21:08:06;7.47;;;5.07;;
10511;SDS011;5304;48.604;2.096;2024-01-30T21:10:50;12.17;;;7.50;;
10511;SDS011;5304;48.604;2.096;2024-01-30T21:13:35;10.33;;;6.13;;
10511;SDS011;5304;48.604;2.096;2024-01-30T21:16:20;19.57;;;11.20;;
10511;SDS011;5304;48.604;2.096;2024-01-30T21:19:04;11.63;;;6.23;;